createdAt,value
2023-11-22T03:44:01.511Z,25.30
2023-11-22T03:46:37.045Z,23.60
2023-11-22T03:49:11.717Z,24.00
2023-11-22T03:51:42.602Z,24.70
2023-11-22T03:54:30.877Z,26.20
2023-11-22T03:57:12.848Z,25.40
2023-11-22T04:00:00.547Z,23.20
2023-11-22T04:03:00.919Z,21.60
2023-11-22T04:06:08.988Z,23.20
2023-11-22T04:08:44.488Z,23.50
2023-11-22T04:11:18.609Z,21.50
2023-11-22T04:13:50.070Z,22.40
2023-11-22T04:16:20.412Z,22.00
2023-11-22T04:18:50.045Z,19.40
2023-11-22T04:23:52.047Z,16.50
2023-11-22T04:26:23.129Z,19.30
2023-11-22T04:28:52.179Z,19.70
2023-11-22T04:31:19.991Z,21.50
2023-11-22T04:33:50.977Z,21.80
2023-11-22T04:36:24.347Z,20.30
2023-11-22T04:38:55.700Z,19.10
2023-11-22T04:41:27.042Z,20.00
2023-11-22T04:43:55.587Z,23.40
2023-11-22T04:46:30.524Z,17.70
2023-11-22T04:49:08.244Z,18.80
2023-11-22T04:51:36.180Z,19.10
2023-11-22T04:54:18.729Z,20.90
2023-11-22T04:56:52.655Z,20.40
2023-11-22T04:59:24.596Z,18.40
2023-11-22T05:01:55.345Z,22.50
2023-11-22T05:04:23.655Z,18.70
2023-11-22T05:06:52.058Z,17.60
2023-11-22T05:09:30.860Z,16.20
2023-11-22T05:12:01.840Z,16.50
2023-11-22T05:14:32.865Z,18.30
2023-11-22T05:17:09.633Z,17.20
2023-11-22T05:19:45.406Z,20.00
2023-11-22T05:22:40.279Z,18.90
2023-11-22T15:56:20.503Z,14.00
2023-11-22T15:58:50.345Z,19.00
2023-11-22T16:03:49.755Z,13.10
2023-11-22T16:06:19.196Z,15.40
2023-11-22T16:08:46.079Z,16.70
2023-11-22T16:11:15.391Z,16.80
2023-11-22T16:13:49.755Z,15.80
2023-11-22T16:16:19.262Z,19.50
2023-11-22T16:18:48.988Z,15.20
2023-11-22T16:21:15.927Z,17.60
2023-11-22T16:23:43.469Z,21.30
2023-11-22T16:26:15.926Z,16.60
2023-11-22T16:28:45.127Z,15.20
2023-11-22T16:31:17.088Z,16.30
2023-11-22T16:33:51.714Z,14.10
2023-11-22T16:36:22.756Z,14.50
2023-11-22T16:38:55.377Z,18.40
2023-11-22T16:41:29.956Z,18.60
2023-11-22T16:44:05.767Z,18.70
2023-11-22T16:46:33.981Z,20.30
2023-11-22T16:49:01.014Z,16.10
2023-11-22T16:51:31.239Z,18.50
2023-11-22T16:54:03.107Z,23.20
2023-11-22T16:56:35.070Z,15.60
2023-11-22T16:59:08.589Z,15.10
2023-11-22T17:01:40.271Z,19.60
2023-11-22T17:04:12.198Z,16.20
2023-11-22T17:06:41.725Z,18.40
2023-11-22T17:11:38.738Z,20.50
2023-11-22T17:14:05.635Z,19.00
2023-11-22T17:16:38.452Z,22.40
2023-11-22T17:19:07.726Z,19.40
2023-11-22T17:21:37.279Z,22.60
2023-11-22T17:24:08.685Z,21.30
2023-11-22T17:26:37.007Z,21.70
2023-11-22T17:29:06.624Z,18.90
2023-11-22T17:31:36.125Z,19.80
2023-11-22T17:34:08.069Z,21.50
2023-11-22T17:36:40.684Z,20.60
2023-11-22T17:39:08.811Z,19.30
2023-11-22T17:41:38.441Z,19.30
2023-11-22T17:44:07.806Z,19.40
2023-11-22T17:49:13.666Z,21.90
2023-11-22T17:51:53.313Z,21.30
2023-11-22T17:54:24.719Z,21.70
2023-11-22T17:56:55.963Z,24.20
2023-11-22T17:59:25.789Z,19.90
2023-11-22T18:01:57.904Z,20.80
2023-11-22T18:04:29.575Z,25.00
2023-11-22T18:07:07.023Z,18.50
2023-11-22T18:09:46.723Z,21.60
2023-11-22T18:12:20.780Z,24.70
2023-11-22T18:14:52.256Z,19.40
2023-11-22T18:17:22.321Z,15.70
2023-11-22T18:19:51.670Z,22.80
2023-11-22T18:22:21.316Z,23.00
2023-11-22T18:24:48.341Z,20.50
2023-11-22T18:27:20.010Z,22.40
2023-11-22T18:29:51.758Z,21.80
2023-11-22T18:32:26.476Z,18.80
2023-11-22T18:34:56.585Z,18.60
2023-11-22T18:37:26.294Z,23.90
2023-11-22T18:39:57.512Z,23.10
2023-11-22T18:42:25.763Z,20.30
2023-11-22T18:44:57.956Z,23.70
2023-11-22T18:47:27.248Z,27.80
2023-11-22T18:49:56.963Z,24.70
2023-11-22T18:52:24.000Z,23.40
2023-11-22T18:54:57.679Z,21.80
2023-11-22T18:57:30.785Z,19.40
2023-11-22T19:00:07.520Z,21.10
2023-11-22T19:02:37.151Z,20.60
2023-11-22T19:05:09.208Z,20.60
2023-11-22T19:07:35.895Z,22.90
2023-11-22T19:10:11.238Z,21.60
2023-11-22T19:12:40.677Z,25.10
2023-11-22T19:15:08.222Z,24.30
2023-11-22T19:17:39.794Z,23.70
2023-11-22T19:20:11.297Z,18.40
2023-11-22T19:22:38.090Z,24.40
2023-11-22T19:25:05.276Z,22.20
2023-11-22T19:27:34.467Z,21.50
2023-11-22T19:30:07.140Z,19.50
2023-11-22T19:32:38.960Z,21.00
2023-11-22T19:35:12.139Z,18.80
2023-11-22T19:37:39.367Z,21.10
2023-11-22T19:40:11.973Z,17.00
2023-11-22T19:42:41.489Z,17.80
2023-11-22T19:45:13.105Z,18.50
2023-11-22T19:47:44.715Z,19.80
2023-11-22T19:50:19.405Z,23.10
2023-11-22T19:52:57.826Z,25.90
2023-11-22T19:55:25.219Z,22.40
2023-11-22T19:57:58.037Z,22.60
2023-11-22T20:00:26.600Z,18.50
2023-11-22T20:03:01.306Z,24.80
2023-11-22T20:05:30.911Z,25.20
2023-11-22T20:07:59.266Z,17.20
2023-11-22T20:10:26.665Z,15.00
2023-11-22T20:12:58.627Z,16.30
2023-11-22T20:15:28.304Z,17.80
2023-11-22T20:20:33.951Z,21.40
2023-11-22T20:25:28.244Z,22.80
2023-11-22T21:52:33.251Z,32.90
2023-11-22T21:55:22.741Z,29.50
2023-11-22T21:58:14.682Z,26.00
2023-11-22T22:00:53.158Z,23.20
2023-11-22T22:03:32.864Z,27.50
2023-11-22T22:06:28.665Z,26.30
2023-11-22T22:09:23.494Z,33.90
2023-11-22T22:12:16.260Z,32.20
2023-11-22T22:14:47.896Z,41.90
2023-11-22T22:17:56.592Z,42.10
2023-11-22T22:20:51.581Z,25.60
2023-11-22T22:24:24.495Z,25.20
2023-11-22T22:27:37.413Z,30.90
2023-11-22T22:30:27.023Z,35.50
2023-11-22T22:33:22.591Z,34.00
2023-11-22T22:36:13.600Z,34.50
2023-11-22T22:39:48.822Z,39.40
2023-11-22T22:42:40.140Z,35.40
2023-11-22T22:46:15.235Z,33.30
2023-11-22T22:49:10.046Z,44.80
2023-11-22T22:52:03.412Z,37.40
2023-11-22T22:54:36.881Z,37.80
2023-11-22T22:57:11.006Z,35.70
2023-11-22T22:59:45.849Z,41.50
2023-11-22T23:02:20.575Z,38.80
2023-11-22T23:04:54.309Z,33.60
2023-11-22T23:07:26.184Z,30.40
2023-11-22T23:09:53.104Z,38.30
2023-11-22T23:12:22.502Z,34.10
2023-11-22T23:14:51.827Z,37.40
2023-11-22T23:17:21.041Z,44.40
2023-11-22T23:19:51.592Z,37.50
2023-11-22T23:22:23.722Z,43.30
2023-11-22T23:24:52.779Z,31.50
2023-11-22T23:27:22.026Z,37.80
2023-11-22T23:30:00.188Z,30.00
2023-11-22T23:32:32.161Z,27.90
2023-11-22T23:35:01.341Z,34.00
2023-11-22T23:37:33.165Z,38.60
2023-11-22T23:40:10.821Z,34.00
2023-11-22T23:42:46.864Z,32.50
2023-11-22T23:45:20.535Z,34.40
2023-11-22T23:47:53.461Z,26.70
2023-11-22T23:50:38.362Z,29.40
2023-11-22T23:53:23.176Z,34.00
2023-11-22T23:55:55.849Z,31.10
2023-11-22T23:58:26.036Z,31.80
